createdAt,value
2018-10-06T00:01:31.437Z,11.51
2018-10-06T00:03:59.829Z,11.54
2018-10-06T00:06:28.302Z,11.42
2018-10-06T00:08:56.890Z,11.37
2018-10-06T00:11:25.369Z,11.29
2018-10-06T00:13:54.006Z,11.25
2018-10-06T00:16:22.518Z,11.16
2018-10-06T00:18:51.013Z,11.16
2018-10-06T00:21:19.518Z,11.15
2018-10-06T00:23:47.902Z,11.16
2018-10-06T00:26:16.395Z,11.07
2018-10-06T00:28:44.790Z,11.02
2018-10-06T00:31:13.321Z,11.03
2018-10-06T00:33:41.757Z,11.03
2018-10-06T00:36:10.173Z,11.00
2018-10-06T00:38:38.581Z,10.92
2018-10-06T00:41:07.055Z,10.87
2018-10-06T00:43:35.482Z,10.83
2018-10-06T00:46:03.991Z,10.78
2018-10-06T00:48:32.430Z,10.73
2018-10-06T00:51:00.852Z,10.69
2018-10-06T00:53:29.245Z,10.59
2018-10-06T00:55:57.707Z,10.62
2018-10-06T00:58:26.189Z,10.57
2018-10-06T01:00:54.586Z,10.53
2018-10-06T01:03:23.071Z,10.49
2018-10-06T01:05:51.489Z,10.53
2018-10-06T01:08:19.934Z,10.52
2018-10-06T01:10:48.371Z,10.45
2018-10-06T01:13:16.788Z,10.41
2018-10-06T01:15:45.218Z,10.37
2018-10-06T01:18:13.649Z,10.30
2018-10-06T01:20:42.054Z,10.29
2018-10-06T01:23:10.513Z,10.25
2018-10-06T01:25:38.909Z,10.25
2018-10-06T01:28:07.297Z,10.32
2018-10-06T01:30:36.236Z,10.29
2018-10-06T01:33:05.088Z,10.30
2018-10-06T01:35:33.922Z,10.33
2018-10-06T01:41:11.000Z,10.56
2018-10-06T01:43:39.856Z,10.74
2018-10-06T01:46:30.069Z,10.80
2018-10-06T01:48:58.975Z,10.74
2018-10-06T01:51:31.481Z,10.79
2018-10-06T01:54:00.444Z,10.75
2018-10-06T01:56:32.749Z,10.74
2018-10-06T01:59:01.592Z,10.71
2018-10-06T02:01:32.124Z,10.63
2018-10-06T02:05:09.372Z,10.58
2018-10-06T02:07:38.140Z,10.49
2018-10-06T02:10:07.082Z,10.42
2018-10-06T02:21:22.998Z,9.93
2018-10-06T02:23:51.666Z,9.93
2018-10-06T02:26:20.268Z,9.90
2018-10-06T02:28:48.813Z,9.91
2018-10-06T02:31:17.260Z,9.89
2018-10-06T02:33:45.640Z,9.89
2018-10-06T02:36:14.053Z,9.94
2018-10-06T02:38:42.506Z,9.90
2018-10-06T02:41:10.901Z,9.86
2018-10-06T02:43:39.354Z,9.82
2018-10-06T02:46:07.766Z,9.77
2018-10-06T02:48:36.214Z,9.78
2018-10-06T02:51:04.908Z,9.79
2018-10-06T02:53:33.305Z,9.76
2018-10-06T02:56:01.723Z,9.81
2018-10-06T02:58:30.185Z,9.82
2018-10-06T03:00:58.621Z,9.79
2018-10-06T03:03:27.026Z,9.70
2018-10-06T03:05:55.438Z,9.61
2018-10-06T03:08:23.957Z,9.60
2018-10-06T03:10:52.361Z,9.63
2018-10-06T03:13:20.775Z,9.74
2018-10-06T03:15:49.218Z,9.77
2018-10-06T03:18:17.671Z,9.87
2018-10-06T03:20:46.110Z,9.81
2018-10-06T03:23:14.489Z,9.75
2018-10-06T03:25:42.927Z,9.72
2018-10-06T03:28:11.316Z,9.79
2018-10-06T03:30:39.762Z,9.79
2018-10-06T03:33:08.229Z,9.76
2018-10-06T03:35:36.626Z,9.77
2018-10-06T03:38:05.054Z,9.83
2018-10-06T03:40:33.511Z,9.84
2018-10-06T03:43:02.032Z,9.87
2018-10-06T03:45:30.502Z,9.98
2018-10-06T03:47:58.963Z,10.04
2018-10-06T03:50:27.655Z,10.12
2018-10-06T03:52:56.198Z,10.16
2018-10-06T03:55:24.689Z,10.25
2018-10-06T03:57:53.134Z,10.28
2018-10-06T04:00:21.570Z,10.28
2018-10-06T04:02:50.005Z,10.29
2018-10-06T04:05:18.426Z,10.31
2018-10-06T04:07:46.859Z,10.36
2018-10-06T04:10:15.328Z,10.45
2018-10-06T04:12:43.818Z,10.56
2018-10-06T04:15:12.266Z,10.69
2018-10-06T04:17:40.684Z,10.77
2018-10-06T04:20:09.114Z,10.83
2018-10-06T04:22:37.497Z,10.87
2018-10-06T04:25:06.182Z,10.91
2018-10-06T04:27:34.566Z,10.93
2018-10-06T04:30:03.045Z,10.93
2018-10-06T04:32:31.457Z,10.90
2018-10-06T04:34:59.926Z,10.91
2018-10-06T04:37:28.341Z,10.86
2018-10-06T04:39:56.778Z,10.81
2018-10-06T04:42:25.243Z,10.82
2018-10-06T04:44:53.649Z,10.82
2018-10-06T04:47:22.113Z,10.78
2018-10-06T04:49:50.537Z,10.71
2018-10-06T04:52:18.946Z,10.68
2018-10-06T04:54:47.402Z,10.55
2018-10-06T04:57:15.850Z,10.43
2018-10-06T04:59:44.269Z,10.31
2018-10-06T05:02:15.757Z,10.36
2018-10-06T05:04:44.501Z,10.46
2018-10-06T05:07:12.909Z,10.65
2018-10-06T05:09:41.316Z,10.67
2018-10-06T05:12:09.926Z,10.74
2018-10-06T05:14:38.353Z,10.73
2018-10-06T05:17:06.789Z,10.77
2018-10-06T05:19:35.205Z,10.75
2018-10-06T05:22:03.598Z,10.81
2018-10-06T05:24:32.012Z,10.78
2018-10-06T05:27:00.402Z,10.69
2018-10-06T05:29:28.895Z,10.63
2018-10-06T05:31:57.273Z,10.58
2018-10-06T05:34:25.664Z,10.51
2018-10-06T05:36:54.089Z,10.54
2018-10-06T05:39:22.496Z,10.52
2018-10-06T05:41:50.886Z,10.56
2018-10-06T05:44:19.339Z,10.60
2018-10-06T05:46:47.716Z,10.67
2018-10-06T05:49:16.157Z,10.69
2018-10-06T05:51:44.562Z,10.74
2018-10-06T05:54:12.989Z,10.79
2018-10-06T05:56:41.394Z,10.86
2018-10-06T05:59:09.804Z,10.93
2018-10-06T06:01:38.224Z,10.97
2018-10-06T06:04:06.609Z,11.00
2018-10-06T06:06:35.018Z,10.99
2018-10-06T06:09:03.790Z,11.06
2018-10-06T06:11:32.227Z,11.14
2018-10-06T06:14:00.614Z,11.09
2018-10-06T06:16:29.113Z,11.13
2018-10-06T06:18:57.529Z,11.19
2018-10-06T06:21:25.910Z,11.26
2018-10-06T06:23:54.349Z,11.32
2018-10-06T06:26:22.777Z,11.38
2018-10-06T06:28:51.180Z,11.42
2018-10-06T06:31:19.737Z,11.47
2018-10-06T06:33:48.148Z,11.53
2018-10-06T06:36:16.619Z,11.61
2018-10-06T06:38:45.121Z,11.72
2018-10-06T06:41:13.574Z,11.75
2018-10-06T06:43:42.101Z,11.82
2018-10-06T06:46:10.602Z,11.88
2018-10-06T06:48:39.029Z,11.87
2018-10-06T06:51:07.513Z,11.90
2018-10-06T06:53:35.909Z,11.92
2018-10-06T06:56:04.347Z,12.00
2018-10-06T06:58:32.753Z,12.08
2018-10-06T07:01:01.239Z,12.19
2018-10-06T07:03:29.626Z,12.30
2018-10-06T07:05:58.065Z,12.46
2018-10-06T07:08:26.460Z,12.57
2018-10-06T07:10:54.868Z,12.60
2018-10-06T07:13:23.294Z,12.73
2018-10-06T07:15:51.744Z,12.82
2018-10-06T07:18:20.186Z,12.97
2018-10-06T07:20:48.729Z,13.09
2018-10-06T07:23:17.128Z,13.23
2018-10-06T07:25:46.822Z,13.39
2018-10-06T07:28:15.233Z,13.57
2018-10-06T07:30:43.617Z,13.67
2018-10-06T07:33:12.026Z,13.78
2018-10-06T07:35:40.466Z,13.93
2018-10-06T07:38:08.910Z,14.19
2018-10-06T07:40:37.385Z,14.38
2018-10-06T07:43:05.866Z,14.53
2018-10-06T07:45:34.302Z,14.68
2018-10-06T07:48:02.807Z,14.88
2018-10-06T07:50:31.413Z,15.06
2018-10-06T07:52:59.972Z,15.20
2018-10-06T07:55:28.432Z,15.35
2018-10-06T07:57:57.006Z,15.51
2018-10-06T08:00:25.483Z,15.64
2018-10-06T08:02:54.019Z,15.77
2018-10-06T08:05:22.429Z,15.90
2018-10-06T08:07:50.967Z,16.02
2018-10-06T08:10:19.386Z,16.12
2018-10-06T08:12:47.822Z,16.20
2018-10-06T08:15:16.303Z,16.29
2018-10-06T08:17:44.841Z,16.38
2018-10-06T08:20:13.297Z,16.50
2018-10-06T08:22:41.757Z,16.62
2018-10-06T08:25:10.208Z,16.75
2018-10-06T08:27:38.621Z,16.77
2018-10-06T08:30:07.038Z,16.92
2018-10-06T08:32:35.497Z,17.00
2018-10-06T08:35:03.903Z,17.15
2018-10-06T08:37:32.396Z,17.27
2018-10-06T08:40:00.798Z,17.34
2018-10-06T08:42:29.239Z,17.59
2018-10-06T08:44:57.622Z,17.74
2018-10-06T08:47:26.041Z,17.83
2018-10-06T08:49:54.513Z,17.93
2018-10-06T08:52:22.969Z,17.87
2018-10-06T08:54:51.414Z,18.10
2018-10-06T08:57:19.856Z,18.53
2018-10-06T08:59:48.278Z,18.60
2018-10-06T09:02:16.824Z,18.74
2018-10-06T09:04:45.193Z,18.83
2018-10-06T09:07:13.645Z,18.96
2018-10-06T09:09:42.159Z,19.08
2018-10-06T09:12:10.682Z,19.17
2018-10-06T09:14:39.136Z,19.26
2018-10-06T09:17:07.750Z,19.50
2018-10-06T09:19:36.142Z,19.74
2018-10-06T09:22:04.574Z,19.76
2018-10-06T09:24:33.012Z,20.00
2018-10-06T09:27:01.410Z,20.16
2018-10-06T09:29:29.821Z,20.26
2018-10-06T09:31:58.269Z,20.32
2018-10-06T09:34:27.837Z,20.45
2018-10-06T09:36:56.553Z,20.37
2018-10-06T09:39:25.384Z,20.39
2018-10-06T09:41:54.143Z,20.42
2018-10-06T09:44:22.648Z,20.66
2018-10-06T09:46:51.170Z,20.92
2018-10-06T09:49:19.789Z,21.14
2018-10-06T09:51:48.458Z,21.22
2018-10-06T09:54:17.093Z,21.30
2018-10-06T09:56:45.858Z,21.31
2018-10-06T09:59:14.380Z,21.41
2018-10-06T10:01:48.320Z,21.39
2018-10-06T10:04:17.802Z,21.57
2018-10-06T10:06:46.411Z,21.77
2018-10-06T10:09:16.327Z,21.88
2018-10-06T10:11:44.839Z,21.77
2018-10-06T10:14:13.320Z,21.80
2018-10-06T10:16:41.751Z,21.99
2018-10-06T10:19:10.383Z,22.00
2018-10-06T10:21:39.036Z,21.95
2018-10-06T10:24:07.587Z,22.09
2018-10-06T10:26:36.089Z,22.12
2018-10-06T10:29:04.650Z,22.19
2018-10-06T10:31:33.224Z,22.02
2018-10-06T10:34:01.798Z,22.07
2018-10-06T10:36:30.218Z,22.14
2018-10-06T10:38:58.798Z,22.44
2018-10-06T10:41:27.529Z,22.68
2018-10-06T10:43:57.573Z,22.83
2018-10-06T10:46:25.971Z,22.79
2018-10-06T10:48:54.428Z,22.96
2018-10-06T10:51:23.007Z,22.75
2018-10-06T10:53:52.422Z,22.84
2018-10-06T10:56:21.128Z,23.11
2018-10-06T10:58:49.785Z,23.32
2018-10-06T11:01:18.268Z,23.52
2018-10-06T11:03:48.476Z,23.68
2018-10-06T11:06:16.990Z,23.72
2018-10-06T11:08:45.392Z,23.86
2018-10-06T11:11:13.892Z,24.05
2018-10-06T11:13:42.256Z,24.03
2018-10-06T11:16:14.122Z,24.05
2018-10-06T11:18:42.637Z,24.20
2018-10-06T11:21:11.033Z,24.22
2018-10-06T11:23:42.933Z,24.32
2018-10-06T11:26:28.350Z,24.39
2018-10-06T11:28:56.808Z,24.37
2018-10-06T11:31:25.458Z,24.37
2018-10-06T11:33:54.125Z,24.32
2018-10-06T11:36:22.594Z,24.34
2018-10-06T11:38:51.024Z,24.41
2018-10-06T11:41:19.407Z,24.49
2018-10-06T11:43:47.803Z,24.45
2018-10-06T11:46:16.654Z,24.54
2018-10-06T11:48:45.129Z,24.68
2018-10-06T11:51:13.584Z,24.59
2018-10-06T11:53:42.004Z,24.66
2018-10-06T11:56:10.394Z,24.73
2018-10-06T11:58:38.788Z,24.72
2018-10-06T12:01:07.217Z,24.78
2018-10-06T12:03:35.645Z,24.71
2018-10-06T12:06:04.070Z,24.74
2018-10-06T12:08:32.502Z,24.93
2018-10-06T12:11:01.022Z,24.98
2018-10-06T12:13:29.513Z,25.04
2018-10-06T12:15:57.945Z,25.12
2018-10-06T12:18:26.386Z,25.20
2018-10-06T12:20:55.025Z,25.08
2018-10-06T12:23:23.629Z,25.05
2018-10-06T12:25:52.123Z,25.10
2018-10-06T12:28:20.502Z,25.22
2018-10-06T12:30:48.951Z,25.32
2018-10-06T12:33:17.681Z,25.22
2018-10-06T12:35:46.359Z,25.22
2018-10-06T12:38:14.726Z,25.29
2018-10-06T12:40:43.167Z,25.45
2018-10-06T12:43:11.591Z,25.56
2018-10-06T12:45:41.857Z,25.63
2018-10-06T12:48:10.255Z,25.58
2018-10-06T12:50:38.707Z,25.54
2018-10-06T12:53:07.085Z,25.62
2018-10-06T12:55:35.565Z,25.61
2018-10-06T12:58:04.002Z,25.68
2018-10-06T13:00:32.456Z,25.95
2018-10-06T13:03:00.882Z,26.09
2018-10-06T13:05:29.350Z,26.52
2018-10-06T13:07:57.813Z,26.86
2018-10-06T13:10:26.253Z,27.79
2018-10-06T13:12:54.666Z,28.62
2018-10-06T13:15:23.118Z,29.17
2018-10-06T13:17:51.632Z,28.73
2018-10-06T13:20:20.038Z,28.64
2018-10-06T13:22:48.566Z,28.79
2018-10-06T13:25:16.985Z,29.43
2018-10-06T13:27:45.437Z,29.07
2018-10-06T13:30:13.917Z,29.26
2018-10-06T13:32:42.356Z,29.65
2018-10-06T13:35:11.626Z,29.03
2018-10-06T13:37:40.089Z,28.44
2018-10-06T13:40:08.566Z,28.40
2018-10-06T13:42:37.004Z,28.48
2018-10-06T13:45:05.688Z,29.30
2018-10-06T13:47:34.081Z,29.19
2018-10-06T13:50:02.845Z,29.39
2018-10-06T13:52:31.294Z,29.89
2018-10-06T13:54:59.747Z,28.94
2018-10-06T13:57:28.248Z,28.10
2018-10-06T13:59:56.954Z,27.72
2018-10-06T14:02:25.992Z,26.86
2018-10-06T14:04:54.390Z,27.39
2018-10-06T14:07:22.798Z,27.94
2018-10-06T14:09:51.206Z,28.37
2018-10-06T14:12:19.688Z,29.18
2018-10-06T14:14:48.150Z,29.08
2018-10-06T14:17:16.589Z,29.65
2018-10-06T14:19:45.023Z,29.53
2018-10-06T14:22:13.505Z,30.31
2018-10-06T14:24:42.673Z,30.21
2018-10-06T14:27:11.133Z,29.48
2018-10-06T14:29:40.646Z,29.39
2018-10-06T14:32:09.074Z,29.42
2018-10-06T14:34:37.462Z,29.59
2018-10-06T14:37:05.973Z,29.29
2018-10-06T14:39:39.426Z,29.60
2018-10-06T14:42:08.124Z,29.93
2018-10-06T14:44:36.545Z,29.01
2018-10-06T14:47:05.006Z,28.77
2018-10-06T14:49:33.380Z,28.52
2018-10-06T14:52:01.769Z,28.64
2018-10-06T14:54:30.175Z,28.76
2018-10-06T14:56:59.158Z,27.82
2018-10-06T14:59:27.505Z,27.68
2018-10-06T15:01:55.920Z,27.59
2018-10-06T15:04:24.364Z,27.13
2018-10-06T15:06:52.797Z,26.78
2018-10-06T15:09:21.182Z,26.41
2018-10-06T15:11:49.613Z,26.49
2018-10-06T15:14:18.121Z,26.62
2018-10-06T15:16:46.600Z,26.63
2018-10-06T15:19:15.034Z,26.86
2018-10-06T15:21:43.463Z,26.84
2018-10-06T15:24:11.838Z,26.81
2018-10-06T15:26:40.305Z,27.24
2018-10-06T15:29:08.726Z,27.30
2018-10-06T15:31:37.260Z,27.33
2018-10-06T15:34:05.697Z,27.50
2018-10-06T15:36:34.187Z,27.12
2018-10-06T15:39:02.608Z,27.38
2018-10-06T15:41:31.025Z,27.31
2018-10-06T15:43:59.438Z,27.63
2018-10-06T15:46:29.219Z,27.50
2018-10-06T15:48:58.022Z,27.62
2018-10-06T15:51:26.775Z,26.93
2018-10-06T15:53:55.265Z,27.39
2018-10-06T15:56:23.813Z,27.02
2018-10-06T15:58:52.237Z,26.86
2018-10-06T16:01:21.064Z,26.05
2018-10-06T16:03:49.499Z,25.33
2018-10-06T16:06:17.995Z,24.58
2018-10-06T16:08:46.497Z,24.15
2018-10-06T16:11:14.937Z,24.18
2018-10-06T16:13:43.463Z,23.66
2018-10-06T16:16:11.900Z,23.50
2018-10-06T16:18:40.371Z,23.38
2018-10-06T16:21:08.869Z,23.38
2018-10-06T16:23:37.463Z,23.06
2018-10-06T16:26:05.849Z,22.91
2018-10-06T16:28:34.221Z,22.67
2018-10-06T16:31:02.649Z,22.29
2018-10-06T16:33:31.143Z,22.38
2018-10-06T16:35:59.490Z,22.29
2018-10-06T16:38:27.930Z,22.26
2018-10-06T16:40:56.359Z,22.17
2018-10-06T16:43:24.775Z,21.85
2018-10-06T16:45:53.250Z,21.68
2018-10-06T16:48:28.017Z,21.58
2018-10-06T16:50:56.400Z,21.27
2018-10-06T16:53:24.795Z,21.07
2018-10-06T16:55:53.201Z,20.86
2018-10-06T16:58:21.669Z,20.75
2018-10-06T17:00:50.104Z,20.65
2018-10-06T17:03:18.547Z,20.51
2018-10-06T17:05:47.029Z,20.38
2018-10-06T17:08:15.442Z,20.24
2018-10-06T17:10:43.866Z,20.13
2018-10-06T17:13:12.272Z,20.06
2018-10-06T17:15:40.703Z,20.05
2018-10-06T17:18:09.149Z,20.00
2018-10-06T17:20:37.578Z,19.90
2018-10-06T17:23:06.057Z,19.82
2018-10-06T17:25:34.448Z,19.75
2018-10-06T17:28:02.911Z,19.62
2018-10-06T17:30:31.357Z,19.49
2018-10-06T17:32:59.822Z,19.40
2018-10-06T17:35:28.250Z,19.31
2018-10-06T17:37:56.710Z,19.09
2018-10-06T17:40:25.127Z,19.02
2018-10-06T17:42:53.542Z,19.03
2018-10-06T17:45:22.000Z,19.15
2018-10-06T17:47:50.425Z,18.91
2018-10-06T17:50:18.919Z,18.93
2018-10-06T17:52:47.271Z,19.05
2018-10-06T17:55:15.694Z,18.96
2018-10-06T17:57:44.199Z,18.94
2018-10-06T18:00:12.701Z,18.83
2018-10-06T18:02:41.171Z,18.69
2018-10-06T18:05:09.603Z,18.57
2018-10-06T18:07:38.038Z,18.54
2018-10-06T18:10:06.502Z,18.47
2018-10-06T18:12:34.948Z,18.32
2018-10-06T18:15:03.377Z,18.33
2018-10-06T18:17:31.814Z,18.43
2018-10-06T18:20:00.221Z,18.67
2018-10-06T18:22:28.766Z,18.85
2018-10-06T18:24:57.161Z,18.76
2018-10-06T18:27:25.576Z,18.68
2018-10-06T18:29:54.191Z,18.69
2018-10-06T18:32:22.597Z,18.59
2018-10-06T18:34:50.989Z,18.56
2018-10-06T18:37:19.649Z,18.52
2018-10-06T18:39:48.791Z,18.46
2018-10-06T18:42:17.318Z,18.39
2018-10-06T18:44:45.752Z,18.38
2018-10-06T18:47:14.194Z,18.35
2018-10-06T18:49:42.609Z,18.26
2018-10-06T18:52:11.053Z,18.27
2018-10-06T18:54:39.688Z,18.28
2018-10-06T18:57:08.271Z,18.16
2018-10-06T18:59:36.714Z,18.05
2018-10-06T19:02:05.137Z,17.89
2018-10-06T19:04:34.598Z,17.94
2018-10-06T19:07:03.002Z,17.85
2018-10-06T19:09:31.563Z,17.67
2018-10-06T19:11:59.965Z,17.66
2018-10-06T19:14:28.564Z,17.57
2018-10-06T19:16:57.037Z,17.38
2018-10-06T19:19:25.561Z,17.26
2018-10-06T19:21:54.163Z,17.19
2018-10-06T19:24:22.589Z,17.13
2018-10-06T19:26:51.469Z,17.07
2018-10-06T19:29:19.887Z,17.03
2018-10-06T19:31:48.585Z,17.16
2018-10-06T19:34:17.078Z,17.05
2018-10-06T19:36:45.592Z,16.97
2018-10-06T19:39:20.776Z,16.91
2018-10-06T19:41:51.859Z,17.00
2018-10-06T19:44:20.415Z,16.95
2018-10-06T19:46:52.736Z,16.88
2018-10-06T19:49:22.570Z,16.86
2018-10-06T19:51:51.038Z,16.81
2018-10-06T19:54:20.157Z,16.78
2018-10-06T19:56:48.588Z,16.77
2018-10-06T19:59:17.039Z,16.89
2018-10-06T20:01:45.495Z,16.75
2018-10-06T20:04:13.965Z,16.74
2018-10-06T20:06:42.381Z,16.71
2018-10-06T20:09:11.570Z,16.65
2018-10-06T20:11:40.046Z,16.67
2018-10-06T20:14:08.764Z,16.68
2018-10-06T20:16:38.398Z,16.80
2018-10-06T20:19:06.972Z,16.81
2018-10-06T20:21:35.725Z,16.71
2018-10-06T20:24:04.206Z,16.60
2018-10-06T20:26:32.615Z,16.54
2018-10-06T20:29:01.059Z,16.49
2018-10-06T20:31:29.514Z,16.48
2018-10-06T20:33:57.998Z,16.34
2018-10-06T20:36:26.482Z,16.21
2018-10-06T20:38:54.917Z,16.04
2018-10-06T20:41:23.341Z,15.90
2018-10-06T20:43:51.832Z,15.82
2018-10-06T20:46:20.350Z,15.72
2018-10-06T20:48:48.747Z,15.69
2018-10-06T20:51:17.129Z,15.68
2018-10-06T20:53:45.602Z,15.69
2018-10-06T20:56:14.034Z,15.69
2018-10-06T20:58:42.885Z,15.62
2018-10-06T21:01:11.319Z,15.50
2018-10-06T21:03:40.092Z,15.49
2018-10-06T21:06:08.525Z,15.46
2018-10-06T21:08:36.983Z,15.53
2018-10-06T21:11:05.470Z,15.52
2018-10-06T21:13:33.960Z,15.46
2018-10-06T21:16:02.421Z,15.44
2018-10-06T21:18:30.989Z,15.41
2018-10-06T21:20:59.350Z,15.13
2018-10-06T21:23:27.760Z,15.13
2018-10-06T21:25:56.197Z,14.99
2018-10-06T21:28:24.673Z,14.95
2018-10-06T21:30:53.119Z,14.84
2018-10-06T21:33:21.525Z,14.77
2018-10-06T21:35:49.995Z,14.82
2018-10-06T21:38:18.466Z,14.70
2018-10-06T21:40:46.929Z,14.74
2018-10-06T21:43:15.352Z,14.68
2018-10-06T21:45:44.165Z,14.63
2018-10-06T21:48:12.613Z,14.66
2018-10-06T21:50:41.070Z,14.73
2018-10-06T21:53:09.476Z,14.77
2018-10-06T21:55:37.890Z,14.85
2018-10-06T21:58:06.366Z,14.89
2018-10-06T22:00:34.890Z,14.97
2018-10-06T22:03:03.337Z,14.72
2018-10-06T22:05:31.869Z,14.67
2018-10-06T22:08:00.345Z,14.66
2018-10-06T22:10:28.805Z,14.84
2018-10-06T22:12:57.261Z,14.88
2018-10-06T22:15:25.697Z,14.88
2018-10-06T22:17:54.169Z,15.14
2018-10-06T22:20:22.620Z,15.26
2018-10-06T22:22:51.115Z,15.20
2018-10-06T22:25:19.605Z,15.34
2018-10-06T22:27:48.263Z,15.75
2018-10-06T22:30:16.693Z,15.55
2018-10-06T22:32:45.090Z,15.36
2018-10-06T22:35:13.526Z,15.32
2018-10-06T22:37:41.925Z,15.54
2018-10-06T22:40:10.329Z,15.60
2018-10-06T22:42:38.763Z,15.58
2018-10-06T22:45:07.442Z,15.68
2018-10-06T22:47:36.094Z,15.51
2018-10-06T22:50:05.123Z,15.45
2018-10-06T22:52:33.541Z,15.38
2018-10-06T22:55:02.067Z,15.38
2018-10-06T22:57:30.470Z,15.32
2018-10-06T22:59:58.984Z,15.25
2018-10-06T23:02:27.405Z,15.22
2018-10-06T23:04:55.885Z,15.32
2018-10-06T23:07:24.291Z,15.28
2018-10-06T23:09:52.705Z,15.28
2018-10-06T23:12:21.105Z,15.04
2018-10-06T23:14:49.653Z,14.93
2018-10-06T23:17:18.055Z,14.70
2018-10-06T23:19:46.578Z,14.54
2018-10-06T23:22:15.014Z,14.61
2018-10-06T23:24:43.459Z,14.78
2018-10-06T23:27:11.878Z,14.88
2018-10-06T23:29:40.318Z,14.88
2018-10-06T23:32:08.736Z,14.80
2018-10-06T23:34:37.134Z,14.67
2018-10-06T23:37:05.570Z,14.49
2018-10-06T23:39:34.009Z,14.39
2018-10-06T23:42:02.629Z,14.32
2018-10-06T23:44:31.037Z,14.24
2018-10-06T23:46:59.486Z,14.15
2018-10-06T23:49:27.910Z,14.14
2018-10-06T23:51:56.317Z,14.17
2018-10-06T23:54:24.716Z,14.17
2018-10-06T23:56:53.138Z,14.20
2018-10-06T23:59:21.522Z,14.32
